Ocean Exporter — VRXJ4 — position and weather

sailwx.info

Track history (hours):
 
Tides and Currents Weather Stations Pressure Air Temp Water Temp Dewpoint Dewpoint Depression Visibility Wind Speed Wind Dir Waves Ship Positions

Ocean Exporter

Last reported at 2017-Feb-12 11:33 UTC. Time now 2017-Feb-24 12:29 UTC.
Position S 29°04' E 154°06'.
Warning: this ship's position is 12 days out of date.

Length 169 m; draft 9.3 m.

Type: Cargo ship. MMSI: 477980000.

Date/timePositionNaut miles runAvg speedWind from/ knotsBaromVisibWave heightAir tempDewpointWater temp
2017-Feb-12 11:33S 29°04' E 154°06'6 5.9
2017-Feb-12 10:33S 29°10' E 154°04'6 5.9
2017-Feb-12 09:33S 29°16' E 154°03'6 6.0
2017-Feb-12 08:33S 29°22' E 154°02'6 6.1
2017-Feb-12 07:33S 29°28' E 154°01'6 6.1
2017-Feb-12 06:33S 29°33' E 153°60'6 6.2
2017-Feb-12 05:33S 29°40' E 153°58'49 6.6
2017-Feb-11 22:11S 30°27' E 153°43'4 6.4
2017-Feb-11 21:30S 30°31' E 153°41'56 7.0
2017-Feb-11 13:29S 31°25' E 153°24'8 6.8
2017-Feb-11 12:22S 31°32' E 153°21'5 6.7
2017-Feb-11 11:33S 31°37' E 153°20'7 6.7
2017-Feb-11 10:33S 31°44' E 153°17'7 7.2
2017-Feb-11 09:33S 31°51' E 153°15'7 7.3
2017-Feb-11 08:33S 31°58' E 153°13'8 7.9
2017-Feb-11 07:32S 32°06' E 153°10'8 8.2
2017-Feb-11 06:33S 32°13' E 153°07'8 8.4
2017-Feb-11 05:33S 32°21' E 153°03'8 8.1
2017-Feb-11 04:33S 32°28' E 152°58'8 8.4
2017-Feb-11 03:33S 32°34' E 152°51'8 8.3
2017-Feb-11 02:33S 32°39' E 152°44'8 8.1
2017-Feb-11 01:33S 32°44' E 152°36'8 7.9
2017-Feb-11 00:33S 32°49' E 152°29'8 7.9
2017-Feb-10 23:33S 32°55' E 152°22'8 8.4
2017-Feb-10 22:33S 32°58' E 152°12'1010.1
2017-Feb-10 21:33S 32°59' E 152°00'10 1.1
2017-Feb-10 12:31S 32°55' E 151°49'2 2.3
2017-Feb-10 11:32S 32°55' E 151°46'0 0.0
2017-Feb-10 10:32S 32°55' E 151°46'0 0.0
2017-Feb-10 09:32S 32°55' E 151°46'0 0.0
2017-Feb-10 08:32S 32°55' E 151°46'0 0.0
2017-Feb-10 07:32S 32°55' E 151°46'0 0.0
2017-Feb-10 06:26S 32°55' E 151°46'0 0.0
2017-Feb-10 04:14S 32°55' E 151°46'0 0.0
2017-Feb-10 03:32S 32°55' E 151°46'0 0.0
2017-Feb-10 02:32S 32°55' E 151°46'0 0.0
2017-Feb-10 01:32S 32°55' E 151°46'0 0.0
2017-Feb-10 00:20S 32°55' E 151°46'0 0.0
2017-Feb-09 21:17S 32°55' E 151°46'0 0.0
2017-Feb-09 20:32S 32°55' E 151°46'0 0.0
2017-Feb-09 19:32S 32°55' E 151°46'0 0.0
2017-Feb-09 18:32S 32°55' E 151°46'0 0.0
2017-Feb-09 17:32S 32°55' E 151°46'0 0.0
2017-Feb-09 16:32S 32°55' E 151°46'0 0.0
2017-Feb-09 15:32S 32°55' E 151°46'0 0.0
2017-Feb-09 14:32S 32°55' E 151°46'0 0.0
2017-Feb-09 13:32S 32°55' E 151°46'0 0.0
2017-Feb-09 12:25S 32°55' E 151°46'0 0.0
2017-Feb-09 10:31S 32°55' E 151°46'0 0.0
2017-Feb-09 09:25S 32°55' E 151°46'0 0.0
2017-Feb-09 08:31S 32°55' E 151°46'0 0.0
2017-Feb-09 07:19S 32°55' E 151°46'0 0.0
2017-Feb-09 06:31S 32°55' E 151°46'0 0.0
2017-Feb-09 05:31S 32°55' E 151°46'0 0.0
2017-Feb-09 04:31S 32°55' E 151°46'0 0.0
2017-Feb-09 03:31S 32°55' E 151°46'0 0.0
2017-Feb-09 02:31S 32°55' E 151°46'0 0.0
2017-Feb-09 01:31S 32°55' E 151°46'0 0.0
2017-Feb-08 20:13S 32°55' E 151°46'0 0.0
2017-Feb-08 19:19S 32°55' E 151°46'0 0.0
2017-Feb-08 18:19S 32°55' E 151°46'0 0.0
2017-Feb-08 17:31S 32°55' E 151°46'0 0.0
2017-Feb-08 16:31S 32°55' E 151°46'0 0.0
2017-Feb-08 15:31S 32°55' E 151°46'0 0.0
2017-Feb-08 14:31S 32°55' E 151°46'0 0.0
2017-Feb-08 13:22S 32°55' E 151°46'0 0.0
2017-Feb-08 09:31S 32°55' E 151°46'0 0.0
2017-Feb-08 08:31S 32°55' E 151°46'0 0.0
2017-Feb-08 07:19S 32°55' E 151°46'0 0.0
2017-Feb-08 04:30S 32°55' E 151°46'0 0.0
2017-Feb-08 03:30S 32°55' E 151°46'0 0.0
2017-Feb-08 02:33S 32°55' E 151°46'0 0.0
2017-Feb-08 01:24S 32°55' E 151°46'0 0.0
2017-Feb-08 00:30S 32°55' E 151°46'0 0.0
2017-Feb-07 23:30S 32°55' E 151°46'0 0.0
2017-Feb-07 22:30S 32°55' E 151°46'0 0.0
2017-Feb-07 21:33S 32°55' E 151°46'0 0.0
2017-Feb-07 20:33S 32°55' E 151°46'0 0.0
2017-Feb-07 19:30S 32°55' E 151°46'0 0.0
2017-Feb-07 18:30S 32°55' E 151°46'0 0.0
2017-Feb-07 17:18S 32°55' E 151°46'0 0.0
2017-Feb-07 16:30S 32°55' E 151°46'0 0.0
2017-Feb-07 15:30S 32°55' E 151°46'0 0.0
2017-Feb-07 14:24S 32°55' E 151°46'0 0.0
2017-Feb-07 11:24S 32°55' E 151°46'0 0.0
2017-Feb-07 10:30S 32°55' E 151°46'0 0.0
2017-Feb-07 08:18S 32°55' E 151°46'0 0.0
2017-Feb-07 07:18S 32°55' E 151°46'0 0.0
2017-Feb-07 06:30S 32°55' E 151°46'0 0.0
2017-Feb-07 04:30S 32°55' E 151°46'0 0.0
2017-Feb-07 01:24S 32°55' E 151°46'0 0.0
2017-Feb-06 23:24S 32°55' E 151°46'0 0.0
2017-Feb-06 19:05S 32°55' E 151°46'0 0.0
2017-Feb-06 13:17S 32°55' E 151°46'0 0.0
2017-Feb-06 10:26S 32°55' E 151°46'0 0.0
2017-Feb-06 09:29S 32°55' E 151°46'0 0.0
2017-Feb-06 07:05S 32°55' E 151°46'0 0.0
2017-Feb-06 06:05S 32°55' E 151°46'0 0.0
2017-Feb-06 05:32S 32°55' E 151°46'0 0.0
2017-Feb-06 04:29S 32°55' E 151°46'0 0.0
2017-Feb-06 03:26S 32°55' E 151°46'0 0.0
2017-Feb-06 02:32S 32°55' E 151°46'0 0.0
2017-Feb-06 01:29S 32°55' E 151°46'0 0.0
2017-Feb-06 00:31S 32°55' E 151°46'0 0.0
2017-Feb-05 23:28S 32°55' E 151°46'0 0.0
2017-Feb-05 22:22S 32°55' E 151°46'0 0.0
2017-Feb-05 21:31S 32°55' E 151°46'0 0.0
2017-Feb-05 20:31S 32°55' E 151°46'0 0.0
2017-Feb-05 19:28S 32°55' E 151°46'0 0.0
2017-Feb-05 18:28S 32°55' E 151°46'0 0.0
2017-Feb-05 17:31S 32°55' E 151°46'0 0.0
2017-Feb-05 16:31S 32°55' E 151°46'0 0.0
2017-Feb-05 15:28S 32°55' E 151°46'0 0.0
2017-Feb-05 14:28S 32°55' E 151°46'0 0.0
2017-Feb-05 13:28S 32°55' E 151°46'0 0.0
2017-Feb-05 12:28S 32°55' E 151°46'0 0.0
2017-Feb-05 11:31S 32°55' E 151°46'0 0.0
2017-Feb-05 10:28S 32°55' E 151°46'0 0.0
2017-Feb-05 09:28S 32°55' E 151°46'0 0.0
2017-Feb-05 08:28S 32°55' E 151°46'0 0.0
2017-Feb-05 07:31S 32°55' E 151°46'3 3.6
2017-Feb-05 06:33S 32°55' E 151°50'6 6.2
2017-Feb-05 05:33S 33°01' E 151°48'  
Track history (hours):
 
Tides and Currents Weather Stations Pressure Air Temp Water Temp Dewpoint Dewpoint Depression Visibility Wind Speed Wind Dir Waves Ship Positions

Ocean Exporter

Last reported at 2017-Feb-12 11:33 UTC. Time now 2017-Feb-24 12:29 UTC.
Position S 29°04' E 154°06'.
Warning: this ship's position is 12 days out of date.

Length 169 m; draft 9.3 m.

Type: Cargo ship. MMSI: 477980000.

Date/timePositionNaut miles runAvg speedWind from/ knotsBaromVisibWave heightAir tempDewpointWater temp
2017-Feb-12 11:33S 29°04' E 154°06'6 5.9
2017-Feb-12 10:33S 29°10' E 154°04'6 5.9
2017-Feb-12 09:33S 29°16' E 154°03'6 6.0
2017-Feb-12 08:33S 29°22' E 154°02'6 6.1
2017-Feb-12 07:33S 29°28' E 154°01'6 6.1
2017-Feb-12 06:33S 29°33' E 153°60'6 6.2
2017-Feb-12 05:33S 29°40' E 153°58'49 6.6
2017-Feb-11 22:11S 30°27' E 153°43'4 6.4
2017-Feb-11 21:30S 30°31' E 153°41'56 7.0
2017-Feb-11 13:29S 31°25' E 153°24'8 6.8
2017-Feb-11 12:22S 31°32' E 153°21'5 6.7
2017-Feb-11 11:33S 31°37' E 153°20'7 6.7
2017-Feb-11 10:33S 31°44' E 153°17'7 7.2
2017-Feb-11 09:33S 31°51' E 153°15'7 7.3
2017-Feb-11 08:33S 31°58' E 153°13'8 7.9
2017-Feb-11 07:32S 32°06' E 153°10'8 8.2
2017-Feb-11 06:33S 32°13' E 153°07'8 8.4
2017-Feb-11 05:33S 32°21' E 153°03'8 8.1
2017-Feb-11 04:33S 32°28' E 152°58'8 8.4
2017-Feb-11 03:33S 32°34' E 152°51'8 8.3
2017-Feb-11 02:33S 32°39' E 152°44'8 8.1
2017-Feb-11 01:33S 32°44' E 152°36'8 7.9
2017-Feb-11 00:33S 32°49' E 152°29'8 7.9
2017-Feb-10 23:33S 32°55' E 152°22'8 8.4
2017-Feb-10 22:33S 32°58' E 152°12'1010.1
2017-Feb-10 21:33S 32°59' E 152°00'10 1.1
2017-Feb-10 12:31S 32°55' E 151°49'2 2.3
2017-Feb-10 11:32S 32°55' E 151°46'0 0.0
2017-Feb-10 10:32S 32°55' E 151°46'0 0.0
2017-Feb-10 09:32S 32°55' E 151°46'0 0.0
2017-Feb-10 08:32S 32°55' E 151°46'0 0.0
2017-Feb-10 07:32S 32°55' E 151°46'0 0.0
2017-Feb-10 06:26S 32°55' E 151°46'0 0.0
2017-Feb-10 04:14S 32°55' E 151°46'0 0.0
2017-Feb-10 03:32S 32°55' E 151°46'0 0.0
2017-Feb-10 02:32S 32°55' E 151°46'0 0.0
2017-Feb-10 01:32S 32°55' E 151°46'0 0.0
2017-Feb-10 00:20S 32°55' E 151°46'0 0.0
2017-Feb-09 21:17S 32°55' E 151°46'0 0.0
2017-Feb-09 20:32S 32°55' E 151°46'0 0.0
2017-Feb-09 19:32S 32°55' E 151°46'0 0.0
2017-Feb-09 18:32S 32°55' E 151°46'0 0.0
2017-Feb-09 17:32S 32°55' E 151°46'0 0.0
2017-Feb-09 16:32S 32°55' E 151°46'0 0.0
2017-Feb-09 15:32S 32°55' E 151°46'0 0.0
2017-Feb-09 14:32S 32°55' E 151°46'0 0.0
2017-Feb-09 13:32S 32°55' E 151°46'0 0.0
2017-Feb-09 12:25S 32°55' E 151°46'0 0.0
2017-Feb-09 10:31S 32°55' E 151°46'0 0.0
2017-Feb-09 09:25S 32°55' E 151°46'0 0.0
2017-Feb-09 08:31S 32°55' E 151°46'0 0.0
2017-Feb-09 07:19S 32°55' E 151°46'0 0.0
2017-Feb-09 06:31S 32°55' E 151°46'0 0.0
2017-Feb-09 05:31S 32°55' E 151°46'0 0.0
2017-Feb-09 04:31S 32°55' E 151°46'0 0.0
2017-Feb-09 03:31S 32°55' E 151°46'0 0.0
2017-Feb-09 02:31S 32°55' E 151°46'0 0.0
2017-Feb-09 01:31S 32°55' E 151°46'0 0.0
2017-Feb-08 20:13S 32°55' E 151°46'0 0.0
2017-Feb-08 19:19S 32°55' E 151°46'0 0.0
2017-Feb-08 18:19S 32°55' E 151°46'0 0.0
2017-Feb-08 17:31S 32°55' E 151°46'0 0.0
2017-Feb-08 16:31S 32°55' E 151°46'0 0.0
2017-Feb-08 15:31S 32°55' E 151°46'0 0.0
2017-Feb-08 14:31S 32°55' E 151°46'0 0.0
2017-Feb-08 13:22S 32°55' E 151°46'0 0.0
2017-Feb-08 09:31S 32°55' E 151°46'0 0.0
2017-Feb-08 08:31S 32°55' E 151°46'0 0.0
2017-Feb-08 07:19S 32°55' E 151°46'0 0.0
2017-Feb-08 04:30S 32°55' E 151°46'0 0.0
2017-Feb-08 03:30S 32°55' E 151°46'0 0.0
2017-Feb-08 02:33S 32°55' E 151°46'0 0.0
2017-Feb-08 01:24S 32°55' E 151°46'0 0.0
2017-Feb-08 00:30S 32°55' E 151°46'0 0.0
2017-Feb-07 23:30S 32°55' E 151°46'0 0.0
2017-Feb-07 22:30S 32°55' E 151°46'0 0.0
2017-Feb-07 21:33S 32°55' E 151°46'0 0.0
2017-Feb-07 20:33S 32°55' E 151°46'0 0.0
2017-Feb-07 19:30S 32°55' E 151°46'0 0.0
2017-Feb-07 18:30S 32°55' E 151°46'0 0.0
2017-Feb-07 17:18S 32°55' E 151°46'0 0.0
2017-Feb-07 16:30S 32°55' E 151°46'0 0.0
2017-Feb-07 15:30S 32°55' E 151°46'0 0.0
2017-Feb-07 14:24S 32°55' E 151°46'0 0.0
2017-Feb-07 11:24S 32°55' E 151°46'0 0.0
2017-Feb-07 10:30S 32°55' E 151°46'0 0.0
2017-Feb-07 08:18S 32°55' E 151°46'0 0.0
2017-Feb-07 07:18S 32°55' E 151°46'0 0.0
2017-Feb-07 06:30S 32°55' E 151°46'0 0.0
2017-Feb-07 04:30S 32°55' E 151°46'0 0.0
2017-Feb-07 01:24S 32°55' E 151°46'0 0.0
2017-Feb-06 23:24S 32°55' E 151°46'0 0.0
2017-Feb-06 19:05S 32°55' E 151°46'0 0.0
2017-Feb-06 13:17S 32°55' E 151°46'0 0.0
2017-Feb-06 10:26S 32°55' E 151°46'0 0.0
2017-Feb-06 09:29S 32°55' E 151°46'0 0.0
2017-Feb-06 07:05S 32°55' E 151°46'0 0.0
2017-Feb-06 06:05S 32°55' E 151°46'0 0.0
2017-Feb-06 05:32S 32°55' E 151°46'0 0.0
2017-Feb-06 04:29S 32°55' E 151°46'0 0.0
2017-Feb-06 03:26S 32°55' E 151°46'0 0.0
2017-Feb-06 02:32S 32°55' E 151°46'0 0.0
2017-Feb-06 01:29S 32°55' E 151°46'0 0.0
2017-Feb-06 00:31S 32°55' E 151°46'0 0.0
2017-Feb-05 23:28S 32°55' E 151°46'0 0.0
2017-Feb-05 22:22S 32°55' E 151°46'0 0.0
2017-Feb-05 21:31S 32°55' E 151°46'0 0.0
2017-Feb-05 20:31S 32°55' E 151°46'0 0.0
2017-Feb-05 19:28S 32°55' E 151°46'0 0.0
2017-Feb-05 18:28S 32°55' E 151°46'0 0.0
2017-Feb-05 17:31S 32°55' E 151°46'0 0.0
2017-Feb-05 16:31S 32°55' E 151°46'0 0.0
2017-Feb-05 15:28S 32°55' E 151°46'0 0.0
2017-Feb-05 14:28S 32°55' E 151°46'0 0.0
2017-Feb-05 13:28S 32°55' E 151°46'0 0.0
2017-Feb-05 12:28S 32°55' E 151°46'0 0.0
2017-Feb-05 11:31S 32°55' E 151°46'0 0.0
2017-Feb-05 10:28S 32°55' E 151°46'0 0.0
2017-Feb-05 09:28S 32°55' E 151°46'0 0.0
2017-Feb-05 08:28S 32°55' E 151°46'0 0.0
2017-Feb-05 07:31S 32°55' E 151°46'3 3.6
2017-Feb-05 06:33S 32°55' E 151°50'6 6.2
2017-Feb-05 05:33S 33°01' E 151°48'  

Dump ship's entire track history